createdAt,value
2022-11-05T00:00:16.310Z,99.99
2022-11-05T00:01:16.406Z,99.99
2022-11-05T00:02:16.305Z,99.99
2022-11-05T00:03:16.362Z,99.99
2022-11-05T00:04:16.310Z,99.99
2022-11-05T00:05:16.272Z,99.99
2022-11-05T00:06:16.395Z,99.99
2022-11-05T00:07:16.246Z,99.99
2022-11-05T00:08:16.258Z,99.99
2022-11-05T00:09:16.207Z,99.99
2022-11-05T00:10:16.204Z,99.99
2022-11-05T00:11:18.259Z,99.99
2022-11-05T00:12:16.187Z,99.99
2022-11-05T00:13:16.206Z,99.99
2022-11-05T00:14:16.147Z,99.99
2022-11-05T00:15:16.119Z,99.99
2022-11-05T00:16:16.155Z,99.99
2022-11-05T00:17:16.104Z,99.99
2022-11-05T00:18:16.146Z,99.99
2022-11-05T00:19:16.074Z,99.99
2022-11-05T00:20:16.113Z,99.99
2022-11-05T00:21:16.061Z,99.99
2022-11-05T00:22:16.018Z,99.99
2022-11-05T00:23:16.062Z,99.99
2022-11-05T00:24:20.395Z,99.99
2022-11-05T00:25:17.023Z,99.99
2022-11-05T00:26:15.981Z,99.99
2022-11-05T00:27:16.013Z,99.99
2022-11-05T00:28:16.000Z,99.99
2022-11-05T00:29:15.964Z,99.99
2022-11-05T00:30:15.995Z,99.99
2022-11-05T00:31:15.960Z,99.99
2022-11-05T00:32:15.932Z,99.99
2022-11-05T00:33:15.930Z,99.99
2022-11-05T00:34:15.915Z,99.99
2022-11-05T00:35:15.908Z,99.99
2022-11-05T00:36:15.908Z,99.99
2022-11-05T00:37:15.891Z,99.99
2022-11-05T00:38:15.873Z,99.99
2022-11-05T00:39:15.817Z,99.99
2022-11-05T00:40:15.792Z,99.99
2022-11-05T00:41:15.779Z,99.99
2022-11-05T00:42:15.781Z,99.99
2022-11-05T00:43:15.801Z,99.99
2022-11-05T00:44:15.773Z,99.99
2022-11-05T00:45:15.740Z,99.99
2022-11-05T00:46:15.729Z,99.99
2022-11-05T00:47:15.739Z,99.99
2022-11-05T00:48:15.769Z,99.99
2022-11-05T00:49:15.687Z,99.99
2022-11-05T00:50:15.700Z,99.99
2022-11-05T00:51:15.665Z,99.99
2022-11-05T00:52:15.635Z,99.99
2022-11-05T00:53:15.644Z,99.99
2022-11-05T00:54:15.645Z,99.99
2022-11-05T00:55:15.620Z,99.99
2022-11-05T00:56:15.642Z,99.99
2022-11-05T00:57:15.596Z,99.99
2022-11-05T00:58:15.586Z,99.99
2022-11-05T00:59:15.619Z,99.99
2022-11-05T01:00:15.555Z,99.99
2022-11-05T01:01:15.759Z,99.99
2022-11-05T01:02:15.627Z,99.99
2022-11-05T01:03:15.809Z,99.99
2022-11-05T01:04:15.485Z,99.99
2022-11-05T01:05:15.478Z,99.99
2022-11-05T01:06:15.456Z,99.99
2022-11-05T01:07:15.458Z,99.99
2022-11-05T01:08:15.448Z,99.99
2022-11-05T01:09:15.449Z,99.99
2022-11-05T01:10:15.405Z,99.99
2022-11-05T01:11:15.419Z,99.99
2022-11-05T01:12:15.388Z,99.99
2022-11-05T01:13:15.886Z,99.99
2022-11-05T01:14:15.386Z,99.99
2022-11-05T01:15:15.350Z,99.99
2022-11-05T01:16:15.341Z,99.99
2022-11-05T01:17:15.325Z,99.99
2022-11-05T01:18:15.293Z,99.99
2022-11-05T01:19:15.318Z,99.99
2022-11-05T01:20:15.275Z,99.99
2022-11-05T01:21:15.277Z,99.99
2022-11-05T01:22:15.257Z,99.99
2022-11-05T01:23:15.676Z,99.99
2022-11-05T01:24:15.240Z,99.99
2022-11-05T01:25:15.221Z,99.99
2022-11-05T01:26:15.205Z,99.99
2022-11-05T01:27:15.195Z,99.99
2022-11-05T01:28:15.236Z,99.99
2022-11-05T01:29:15.230Z,99.99
2022-11-05T01:30:15.151Z,99.99
2022-11-05T01:31:15.130Z,99.99
2022-11-05T01:32:15.124Z,99.99
2022-11-05T01:33:15.333Z,99.99
2022-11-05T01:34:15.098Z,99.99
2022-11-05T01:35:15.078Z,99.99
2022-11-05T01:36:15.059Z,99.99
2022-11-05T01:37:15.072Z,99.99
2022-11-05T01:38:15.109Z,99.99
2022-11-05T01:39:15.074Z,99.99
2022-11-05T01:40:14.999Z,99.99
2022-11-05T01:41:15.070Z,99.99
2022-11-05T01:42:15.001Z,99.99
2022-11-05T01:43:14.979Z,99.99
2022-11-05T01:44:14.981Z,99.99
2022-11-05T01:45:14.959Z,99.99
2022-11-05T01:46:14.936Z,99.99
2022-11-05T01:47:14.948Z,99.99
2022-11-05T01:48:14.919Z,99.99
2022-11-05T01:49:14.908Z,99.99
2022-11-05T01:50:14.883Z,99.99
2022-11-05T01:51:14.891Z,99.99
2022-11-05T01:52:14.880Z,99.99
2022-11-05T01:53:14.860Z,99.99
2022-11-05T01:54:14.827Z,99.99
2022-11-05T01:55:14.839Z,99.99
2022-11-05T01:56:14.823Z,99.99
2022-11-05T01:57:14.813Z,99.99
2022-11-05T01:58:14.800Z,99.99
2022-11-05T01:59:14.769Z,99.99
2022-11-05T02:00:14.779Z,99.99
2022-11-05T02:01:14.744Z,99.99
2022-11-05T02:02:14.908Z,99.99
2022-11-05T02:03:14.887Z,99.99
2022-11-05T02:04:14.704Z,99.99
2022-11-05T02:05:14.718Z,99.99
2022-11-05T02:06:14.708Z,99.97
2022-11-05T02:07:14.687Z,99.99
2022-11-05T02:08:14.677Z,99.97
2022-11-05T02:09:14.674Z,99.87
2022-11-05T02:10:14.654Z,99.87
2022-11-05T02:11:14.634Z,99.87
2022-11-05T02:12:14.611Z,99.97
2022-11-05T02:13:14.600Z,99.87
2022-11-05T02:14:14.578Z,99.97
2022-11-05T02:15:14.595Z,99.87
2022-11-05T02:16:14.545Z,99.87
2022-11-05T02:17:14.563Z,99.91
2022-11-05T02:18:14.528Z,99.81
2022-11-05T02:19:14.546Z,99.87
2022-11-05T02:20:14.516Z,99.97
2022-11-05T02:21:14.496Z,99.97
2022-11-05T02:22:14.472Z,99.99
2022-11-05T02:23:14.469Z,99.99
2022-11-05T02:24:14.466Z,99.99
2022-11-05T02:25:14.485Z,99.99
2022-11-05T02:26:14.455Z,99.99
2022-11-05T02:27:14.422Z,99.99
2022-11-05T02:28:14.390Z,99.99
2022-11-05T02:29:14.411Z,99.99
2022-11-05T02:30:14.409Z,99.99
2022-11-05T02:31:14.380Z,99.99
2022-11-05T02:32:14.341Z,99.99
2022-11-05T02:33:14.502Z,99.99
2022-11-05T02:34:14.340Z,99.99
2022-11-05T02:35:14.344Z,99.99
2022-11-05T02:36:14.304Z,99.99
2022-11-05T02:37:14.290Z,99.99
2022-11-05T02:38:14.285Z,99.99
2022-11-05T02:39:14.287Z,99.99
2022-11-05T02:40:14.261Z,99.99
2022-11-05T02:41:14.262Z,99.99
2022-11-05T02:42:14.211Z,99.99
2022-11-05T02:43:14.200Z,99.99
2022-11-05T02:44:14.191Z,99.99
2022-11-05T02:45:14.184Z,99.99
2022-11-05T02:46:14.178Z,99.99
2022-11-05T02:47:18.023Z,99.99
2022-11-05T02:48:14.163Z,99.99
2022-11-05T02:49:14.151Z,99.93
2022-11-05T02:50:14.108Z,99.97
2022-11-05T02:51:14.143Z,99.97
2022-11-05T02:52:14.086Z,99.87
2022-11-05T02:53:14.175Z,99.97
2022-11-05T02:54:14.059Z,99.87
2022-11-05T02:55:14.036Z,99.87
2022-11-05T02:56:14.070Z,99.87
2022-11-05T02:57:14.026Z,99.77
2022-11-05T02:58:14.014Z,99.87
2022-11-05T02:59:14.027Z,99.87
2022-11-05T03:00:14.016Z,99.87
2022-11-05T03:01:14.008Z,99.66
2022-11-05T03:02:14.118Z,99.77
2022-11-05T03:03:14.047Z,99.87
2022-11-05T03:04:13.946Z,99.97
2022-11-05T03:05:13.916Z,99.97
2022-11-05T03:06:13.913Z,99.99
2022-11-05T03:07:13.904Z,99.99
2022-11-05T03:08:13.868Z,99.99
2022-11-05T03:09:13.868Z,99.99
2022-11-05T03:10:13.844Z,99.99
2022-11-05T03:11:13.865Z,99.99
2022-11-05T03:12:13.823Z,99.99
2022-11-05T03:13:13.992Z,99.99
2022-11-05T03:14:13.816Z,99.99
2022-11-05T03:15:13.807Z,99.99
2022-11-05T03:16:13.791Z,99.99
2022-11-05T03:17:13.768Z,99.99
2022-11-05T03:18:13.767Z,99.99
2022-11-05T03:19:13.747Z,99.99
2022-11-05T03:20:13.737Z,99.99
2022-11-05T03:21:13.737Z,99.99
2022-11-05T03:22:13.692Z,99.99
2022-11-05T03:23:14.037Z,99.99
2022-11-05T03:24:13.702Z,99.99
2022-11-05T03:25:13.673Z,99.99
2022-11-05T03:26:13.695Z,99.99
2022-11-05T03:27:13.634Z,99.99
2022-11-05T03:28:13.612Z,99.99
2022-11-05T03:29:13.625Z,99.99
2022-11-05T03:30:13.584Z,99.99
2022-11-05T03:31:13.594Z,99.99
2022-11-05T03:32:13.614Z,99.99
2022-11-05T03:33:13.927Z,99.99
2022-11-05T03:34:13.548Z,99.99
2022-11-05T03:35:13.567Z,99.99
2022-11-05T03:36:13.536Z,99.97
2022-11-05T03:37:13.535Z,99.87
2022-11-05T03:38:13.503Z,99.87
2022-11-05T03:39:13.507Z,99.77
2022-11-05T03:40:13.476Z,99.66
2022-11-05T03:41:13.592Z,99.56
2022-11-05T03:42:13.469Z,99.56
2022-11-05T03:43:13.865Z,99.46
2022-11-05T03:44:13.421Z,99.51
2022-11-05T03:45:13.410Z,99.51
2022-11-05T03:46:13.391Z,99.60
2022-11-05T03:47:13.387Z,99.51
2022-11-05T03:48:13.462Z,99.60
2022-11-05T03:49:13.341Z,99.60
2022-11-05T03:50:13.355Z,99.51
2022-11-05T03:51:21.338Z,99.60
2022-11-05T03:52:21.233Z,99.60
2022-11-05T03:53:13.566Z,99.60
2022-11-05T03:54:13.307Z,99.60
2022-11-05T03:55:13.294Z,99.60
2022-11-05T03:56:13.304Z,99.71
2022-11-05T03:57:13.288Z,99.71
2022-11-05T03:58:13.241Z,99.81
2022-11-05T03:59:13.255Z,99.71
2022-11-05T04:00:13.225Z,99.71
2022-11-05T04:01:13.227Z,99.65
2022-11-05T04:02:13.317Z,99.65
2022-11-05T04:03:13.401Z,99.65
2022-11-05T04:04:13.175Z,99.65
2022-11-05T04:05:13.148Z,99.65
2022-11-05T04:06:14.104Z,99.65
2022-11-05T04:07:13.154Z,99.65
2022-11-05T04:08:14.608Z,99.55
2022-11-05T04:09:13.099Z,99.55
2022-11-05T04:10:13.092Z,99.44
2022-11-05T04:11:13.093Z,99.55
2022-11-05T04:12:13.084Z,99.55
2022-11-05T04:13:13.289Z,99.55
2022-11-05T04:14:13.050Z,99.55
2022-11-05T04:15:13.025Z,99.55
2022-11-05T04:16:13.026Z,99.55
2022-11-05T04:17:13.030Z,99.70
2022-11-05T04:18:12.978Z,99.60
2022-11-05T04:19:12.985Z,99.60
2022-11-05T04:20:12.966Z,99.49
2022-11-05T04:21:12.947Z,99.49
2022-11-05T04:22:12.964Z,99.49
2022-11-05T04:23:13.234Z,99.49
2022-11-05T04:24:12.921Z,99.49
2022-11-05T04:25:12.899Z,99.60
2022-11-05T04:26:12.883Z,99.60
2022-11-05T04:27:12.909Z,99.60
2022-11-05T04:28:12.879Z,99.60
2022-11-05T04:29:12.869Z,99.70
2022-11-05T04:30:12.861Z,99.70
2022-11-05T04:31:12.858Z,99.70
2022-11-05T04:32:12.859Z,99.70
2022-11-05T04:33:13.176Z,99.80
2022-11-05T04:34:12.801Z,99.70
2022-11-05T04:35:12.769Z,99.70
2022-11-05T04:36:12.767Z,99.70
2022-11-05T04:37:12.770Z,99.70
2022-11-05T04:38:12.769Z,99.70
2022-11-05T04:39:12.716Z,99.64
2022-11-05T04:40:12.740Z,99.70
2022-11-05T04:41:12.691Z,99.70
2022-11-05T04:42:12.734Z,99.80
2022-11-05T04:43:15.097Z,99.80
2022-11-05T04:44:12.676Z,99.80
2022-11-05T04:45:12.637Z,99.90
2022-11-05T04:46:12.646Z,99.90
2022-11-05T04:47:12.643Z,99.90
2022-11-05T04:48:12.618Z,99.90
2022-11-05T04:49:12.605Z,99.90
2022-11-05T04:50:12.726Z,99.99
2022-11-05T04:51:12.563Z,99.99
2022-11-05T04:52:12.573Z,99.99
2022-11-05T04:53:12.935Z,99.99
2022-11-05T04:54:12.521Z,99.99
2022-11-05T04:55:12.568Z,99.99
2022-11-05T04:56:12.525Z,99.99
2022-11-05T04:57:12.508Z,99.99
2022-11-05T04:58:12.506Z,99.99
2022-11-05T04:59:12.515Z,99.99
2022-11-05T05:00:12.471Z,99.99
2022-11-05T05:01:12.515Z,99.99
2022-11-05T05:02:12.518Z,99.99
2022-11-05T05:03:12.827Z,99.99
2022-11-05T05:04:12.423Z,99.99
2022-11-05T05:05:12.379Z,99.99
2022-11-05T05:06:12.394Z,99.99
2022-11-05T05:07:12.407Z,99.99
2022-11-05T05:08:12.371Z,99.99
2022-11-05T05:09:12.340Z,99.99
2022-11-05T05:10:12.322Z,99.99
2022-11-05T05:11:12.325Z,99.99
2022-11-05T05:12:12.301Z,99.99
2022-11-05T05:13:12.548Z,99.99
2022-11-05T05:14:12.281Z,99.99
2022-11-05T05:15:12.272Z,99.99
2022-11-05T05:16:12.247Z,99.99
2022-11-05T05:17:12.241Z,99.99
2022-11-05T05:18:12.226Z,99.99
2022-11-05T05:19:12.242Z,99.99
2022-11-05T05:20:12.208Z,99.99
2022-11-05T05:21:12.169Z,99.99
2022-11-05T05:22:12.211Z,99.99
2022-11-05T05:23:12.538Z,99.99
2022-11-05T05:24:12.174Z,99.99
2022-11-05T05:25:12.116Z,99.99
2022-11-05T05:26:12.128Z,99.99
2022-11-05T05:27:12.137Z,99.99
2022-11-05T05:28:12.095Z,99.85
2022-11-05T05:29:12.098Z,99.95
2022-11-05T05:30:12.086Z,99.99
2022-11-05T05:31:12.070Z,99.99
2022-11-05T05:32:12.080Z,99.99
2022-11-05T05:33:12.301Z,99.99
2022-11-05T05:34:12.035Z,99.99
2022-11-05T05:35:12.039Z,99.99
2022-11-05T05:36:11.995Z,99.99
2022-11-05T05:37:12.004Z,99.99
2022-11-05T05:38:11.985Z,99.99
2022-11-05T05:39:11.958Z,99.99
2022-11-05T05:40:11.958Z,99.99
2022-11-05T05:41:11.923Z,99.99
2022-11-05T05:42:11.975Z,99.99
2022-11-05T05:43:12.295Z,99.99
2022-11-05T05:44:11.900Z,99.99
2022-11-05T05:45:11.895Z,99.99
2022-11-05T05:46:11.907Z,99.99
2022-11-05T05:47:11.863Z,99.99
2022-11-05T05:48:11.853Z,99.99
2022-11-05T05:49:12.598Z,99.99
2022-11-05T05:50:11.802Z,99.99
2022-11-05T05:51:11.812Z,99.99
2022-11-05T05:52:11.807Z,99.99
2022-11-05T05:53:12.248Z,99.99
2022-11-05T05:54:11.814Z,99.99
2022-11-05T05:55:11.763Z,99.99
2022-11-05T05:56:11.768Z,99.99
2022-11-05T05:57:11.774Z,99.99
2022-11-05T05:58:11.733Z,99.99
2022-11-05T05:59:11.724Z,99.99
2022-11-05T06:00:11.694Z,99.99
2022-11-05T06:01:17.189Z,99.99
2022-11-05T06:02:12.904Z,99.99
2022-11-05T06:03:12.019Z,99.99
2022-11-05T06:04:11.658Z,99.99
2022-11-05T06:05:11.620Z,99.99
2022-11-05T06:06:11.634Z,99.99
2022-11-05T06:07:11.630Z,99.99
2022-11-05T06:08:11.599Z,99.99
2022-11-05T06:09:11.599Z,99.99
2022-11-05T06:10:11.687Z,99.99
2022-11-05T06:11:11.629Z,99.99
2022-11-05T06:12:11.562Z,99.99
2022-11-05T06:13:11.886Z,99.99
2022-11-05T06:14:11.534Z,99.99
2022-11-05T06:15:11.492Z,99.99
2022-11-05T06:16:11.511Z,99.99
2022-11-05T06:17:11.501Z,99.99
2022-11-05T06:18:11.479Z,99.99
2022-11-05T06:19:11.452Z,99.99
2022-11-05T06:20:11.470Z,99.99
2022-11-05T06:21:11.438Z,99.99
2022-11-05T06:22:11.397Z,99.99
2022-11-05T06:23:11.820Z,99.99
2022-11-05T06:24:11.416Z,99.99
2022-11-05T06:25:11.369Z,99.99
2022-11-05T06:26:11.363Z,99.99
2022-11-05T06:27:11.333Z,99.99
2022-11-05T06:28:11.363Z,99.99
2022-11-05T06:29:18.417Z,99.99
2022-11-05T06:30:11.304Z,99.99
2022-11-05T06:31:11.270Z,99.99
2022-11-05T06:32:11.279Z,99.99
2022-11-05T06:33:11.571Z,99.99
2022-11-05T06:34:11.269Z,99.99
2022-11-05T06:35:11.248Z,99.99
2022-11-05T06:36:11.214Z,99.99
2022-11-05T06:37:11.208Z,99.99
2022-11-05T06:38:11.210Z,99.99
2022-11-05T06:39:11.188Z,99.99
2022-11-05T06:40:11.167Z,99.99
2022-11-05T06:41:11.145Z,99.99
2022-11-05T06:42:18.259Z,99.99
2022-11-05T06:43:12.576Z,99.99
2022-11-05T06:44:11.115Z,99.99
2022-11-05T06:45:11.115Z,99.99
2022-11-05T06:46:11.091Z,99.99
2022-11-05T06:47:11.079Z,99.99
2022-11-05T06:48:11.066Z,99.99
2022-11-05T06:49:11.043Z,99.99
2022-11-05T06:50:11.036Z,99.99
2022-11-05T06:51:11.013Z,99.99
2022-11-05T06:52:11.015Z,99.99
2022-11-05T06:53:11.407Z,99.99
2022-11-05T06:54:10.988Z,99.99
2022-11-05T06:55:10.961Z,99.99
2022-11-05T06:56:10.965Z,99.99
2022-11-05T06:57:10.938Z,99.99
2022-11-05T06:58:10.935Z,99.99
2022-11-05T06:59:10.936Z,99.99
2022-11-05T07:00:10.911Z,99.99
2022-11-05T07:01:11.003Z,99.99
2022-11-05T07:02:10.980Z,99.99
2022-11-05T07:03:11.170Z,99.99
2022-11-05T07:04:10.862Z,99.99
2022-11-05T07:05:10.881Z,99.99
2022-11-05T07:06:10.828Z,99.99
2022-11-05T07:07:10.823Z,99.99
2022-11-05T07:08:10.857Z,99.99
2022-11-05T07:09:10.782Z,99.99
2022-11-05T07:10:10.782Z,99.99
2022-11-05T07:11:10.774Z,99.99
2022-11-05T07:12:10.762Z,99.99
2022-11-05T07:13:11.190Z,99.99
2022-11-05T07:14:10.732Z,99.99
2022-11-05T07:15:10.724Z,99.99
2022-11-05T07:16:10.696Z,99.99
2022-11-05T07:17:10.693Z,99.99
2022-11-05T07:18:10.702Z,99.99
2022-11-05T07:19:10.671Z,99.99
2022-11-05T07:20:10.648Z,99.99
2022-11-05T07:21:10.641Z,99.99
2022-11-05T07:22:10.644Z,99.99
2022-11-05T07:23:11.053Z,99.99
2022-11-05T07:24:10.597Z,99.99
2022-11-05T07:25:10.598Z,99.99
2022-11-05T07:26:10.568Z,99.99
2022-11-05T07:27:10.561Z,99.99
2022-11-05T07:28:10.562Z,99.99
2022-11-05T07:29:10.551Z,99.99
2022-11-05T07:30:10.533Z,99.99
2022-11-05T07:31:10.525Z,99.99
2022-11-05T07:32:10.494Z,99.99
2022-11-05T07:33:10.833Z,99.99
2022-11-05T07:34:10.486Z,99.99
2022-11-05T07:35:10.447Z,99.99
2022-11-05T07:36:10.435Z,99.99
2022-11-05T07:37:10.457Z,99.99
2022-11-05T07:38:10.449Z,99.99
2022-11-05T07:39:10.407Z,99.99
2022-11-05T07:40:10.396Z,99.99
2022-11-05T07:41:10.486Z,99.99
2022-11-05T07:42:10.363Z,99.99
2022-11-05T07:43:10.748Z,99.99
2022-11-05T07:44:10.347Z,99.99
2022-11-05T07:45:10.326Z,99.99
2022-11-05T07:46:13.784Z,99.99
2022-11-05T07:47:10.293Z,99.99
2022-11-05T07:48:10.339Z,99.99
2022-11-05T07:49:10.263Z,99.99
2022-11-05T07:50:10.267Z,99.99
2022-11-05T07:51:10.252Z,99.99
2022-11-05T07:52:10.253Z,99.99
2022-11-05T07:53:10.589Z,99.99
2022-11-05T07:54:10.210Z,99.99
2022-11-05T07:55:10.207Z,99.99
2022-11-05T07:56:10.212Z,99.99
2022-11-05T07:57:10.182Z,99.99
2022-11-05T07:58:10.199Z,99.99
2022-11-05T07:59:10.132Z,99.99
2022-11-05T08:00:10.124Z,99.99
2022-11-05T08:01:10.321Z,99.99
2022-11-05T08:02:10.388Z,99.99
2022-11-05T08:03:10.309Z,99.99
2022-11-05T08:04:10.089Z,99.99
2022-11-05T08:05:10.075Z,99.99
2022-11-05T08:06:10.090Z,99.99
2022-11-05T08:07:10.094Z,99.99
2022-11-05T08:08:10.041Z,99.99
2022-11-05T08:09:10.029Z,99.99
2022-11-05T08:10:10.002Z,99.99
2022-11-05T08:11:09.995Z,99.99
2022-11-05T08:12:09.990Z,99.99
2022-11-05T08:13:10.437Z,99.99
2022-11-05T08:14:09.971Z,99.99
2022-11-05T08:15:09.955Z,99.99
2022-11-05T08:16:09.932Z,99.99
2022-11-05T08:17:10.825Z,99.99
2022-11-05T08:18:09.940Z,99.99
2022-11-05T08:19:09.898Z,99.99
2022-11-05T08:20:09.889Z,99.99
2022-11-05T08:21:09.871Z,99.99
2022-11-05T08:22:09.860Z,99.99
2022-11-05T08:23:10.283Z,99.99
2022-11-05T08:24:09.835Z,99.99
2022-11-05T08:25:09.816Z,99.99
2022-11-05T08:26:09.806Z,99.99
2022-11-05T08:27:09.776Z,99.99
2022-11-05T08:28:09.767Z,99.99
2022-11-05T08:29:09.769Z,99.99
2022-11-05T08:30:09.759Z,99.99
2022-11-05T08:31:09.736Z,99.99
2022-11-05T08:32:09.739Z,99.99
2022-11-05T08:33:10.143Z,99.99
2022-11-05T08:34:09.726Z,99.99
2022-11-05T08:35:09.694Z,99.99
2022-11-05T08:36:09.670Z,99.99
2022-11-05T08:37:09.657Z,99.99
2022-11-05T08:38:09.655Z,99.99
2022-11-05T08:39:14.243Z,99.99
2022-11-05T08:40:10.639Z,99.99
2022-11-05T08:41:09.616Z,99.99
2022-11-05T08:42:09.623Z,99.99
2022-11-05T08:43:09.911Z,99.99
2022-11-05T08:44:09.573Z,99.99
2022-11-05T08:45:09.563Z,99.99
2022-11-05T08:46:09.552Z,99.99
2022-11-05T08:47:09.552Z,99.99
2022-11-05T08:48:09.528Z,99.99
2022-11-05T08:49:09.516Z,99.99
2022-11-05T08:50:09.496Z,99.99
2022-11-05T08:51:09.488Z,99.99
2022-11-05T08:52:09.481Z,99.99
2022-11-05T08:53:09.814Z,99.99
2022-11-05T08:54:09.439Z,99.99
2022-11-05T08:55:09.439Z,99.99
2022-11-05T08:56:09.402Z,99.99
2022-11-05T08:57:09.414Z,99.93
2022-11-05T08:58:09.385Z,99.93
2022-11-05T08:59:09.363Z,99.83
2022-11-05T09:00:09.383Z,99.83
2022-11-05T09:01:09.381Z,99.83
2022-11-05T09:02:09.513Z,99.79
2022-11-05T09:03:09.839Z,99.89
2022-11-05T09:04:09.303Z,99.89
2022-11-05T09:05:09.309Z,99.89
2022-11-05T09:06:09.303Z,99.79
2022-11-05T09:07:09.269Z,99.68
2022-11-05T09:08:09.271Z,99.68
2022-11-05T09:09:09.249Z,99.58
2022-11-05T09:10:09.263Z,99.58
2022-11-05T09:11:09.237Z,99.48
2022-11-05T09:12:13.244Z,99.48
2022-11-05T09:13:14.751Z,99.38
2022-11-05T09:14:10.222Z,99.33
2022-11-05T09:15:09.221Z,99.22
2022-11-05T09:16:09.148Z,99.12
2022-11-05T09:17:09.138Z,99.02
2022-11-05T09:18:09.151Z,98.92
2022-11-05T09:19:09.131Z,98.92
2022-11-05T09:20:09.125Z,98.82
2022-11-05T09:21:09.100Z,98.71
2022-11-05T09:22:09.087Z,98.71
2022-11-05T09:23:09.489Z,98.61
2022-11-05T09:24:09.060Z,98.41
2022-11-05T09:25:09.052Z,98.30
2022-11-05T09:26:09.039Z,98.20
2022-11-05T09:27:09.030Z,98.16
2022-11-05T09:28:09.947Z,98.05
2022-11-05T09:29:14.081Z,98.05
2022-11-05T09:30:09.982Z,97.54
2022-11-05T09:31:09.029Z,97.44
2022-11-05T09:32:09.030Z,97.33
2022-11-05T09:33:09.298Z,97.33
2022-11-05T09:34:08.939Z,97.44
2022-11-05T09:35:08.940Z,97.33
2022-11-05T09:36:08.917Z,97.23
2022-11-05T09:37:08.909Z,97.23
2022-11-05T09:38:08.890Z,97.23
2022-11-05T09:39:08.904Z,97.13
2022-11-05T09:40:08.871Z,96.82
2022-11-05T09:41:08.849Z,96.62
2022-11-05T09:42:08.856Z,96.10
2022-11-05T09:43:09.140Z,95.69
2022-11-05T09:44:08.805Z,95.69
2022-11-05T09:45:08.806Z,95.65
2022-11-05T09:46:08.784Z,95.49
2022-11-05T09:47:08.761Z,95.44
2022-11-05T09:48:08.741Z,95.65
2022-11-05T09:49:08.759Z,95.75
2022-11-05T09:50:08.745Z,95.75
2022-11-05T09:51:08.719Z,95.75
2022-11-05T09:52:08.705Z,95.65
2022-11-05T09:53:08.944Z,95.34
2022-11-05T09:54:08.694Z,95.29
2022-11-05T09:55:08.651Z,94.93
2022-11-05T09:56:08.641Z,94.21
2022-11-05T09:57:08.632Z,94.01
2022-11-05T09:58:08.610Z,94.07
2022-11-05T09:59:08.671Z,94.17
2022-11-05T10:00:08.618Z,94.27
2022-11-05T10:01:08.666Z,94.07
2022-11-05T10:02:08.726Z,93.76
2022-11-05T10:03:08.871Z,93.86
2022-11-05T10:04:08.554Z,94.17
2022-11-05T10:05:10.273Z,94.27
2022-11-05T10:06:08.548Z,94.23
2022-11-05T10:07:08.500Z,94.23
2022-11-05T10:08:08.509Z,94.23
2022-11-05T10:09:08.492Z,94.12
2022-11-05T10:10:08.484Z,94.12
2022-11-05T10:11:08.471Z,94.23
2022-11-05T10:12:08.436Z,94.12
2022-11-05T10:13:08.640Z,94.02
2022-11-05T10:14:08.447Z,93.82
2022-11-05T10:15:08.450Z,93.30
2022-11-05T10:16:08.400Z,93.20
2022-11-05T10:17:08.386Z,93.10
2022-11-05T10:18:08.389Z,92.90
2022-11-05T10:19:08.364Z,93.00
2022-11-05T10:20:08.346Z,92.69
2022-11-05T10:21:08.346Z,92.34
2022-11-05T10:22:08.309Z,92.14
2022-11-05T10:23:09.509Z,92.14
2022-11-05T10:24:08.296Z,92.34
2022-11-05T10:25:08.308Z,92.34
2022-11-05T10:26:08.267Z,92.34
2022-11-05T10:27:08.245Z,91.83
2022-11-05T10:28:08.254Z,91.63
2022-11-05T10:29:08.276Z,91.11
2022-11-05T10:30:08.218Z,91.52
2022-11-05T10:31:08.211Z,91.22
2022-11-05T10:32:08.195Z,90.81
2022-11-05T10:33:08.253Z,91.01
2022-11-05T10:34:08.170Z,91.31
2022-11-05T10:35:08.184Z,91.52
2022-11-05T10:36:08.145Z,91.42
2022-11-05T10:37:08.147Z,91.31
2022-11-05T10:38:08.118Z,91.42
2022-11-05T10:39:08.104Z,91.42
2022-11-05T10:40:08.086Z,91.11
2022-11-05T10:41:08.063Z,91.01
2022-11-05T10:42:08.067Z,90.81
2022-11-05T10:43:08.071Z,90.81
2022-11-05T10:44:08.055Z,90.81
2022-11-05T10:45:08.014Z,90.81
2022-11-05T10:46:08.016Z,90.60
2022-11-05T10:47:08.007Z,90.30
2022-11-05T10:48:08.019Z,90.36
2022-11-05T10:49:07.995Z,90.77
2022-11-05T10:50:07.975Z,91.07
2022-11-05T10:51:07.947Z,90.66
2022-11-05T10:52:07.934Z,90.45
2022-11-05T10:53:07.954Z,90.36
2022-11-05T10:54:07.909Z,90.66
2022-11-05T10:55:07.902Z,90.66
2022-11-05T10:56:07.870Z,89.12
2022-11-05T10:57:07.879Z,88.20
2022-11-05T10:58:07.864Z,88.00
2022-11-05T10:59:12.005Z,88.92
2022-11-05T11:00:07.849Z,89.39
2022-11-05T11:01:07.878Z,89.09
2022-11-05T11:02:07.948Z,89.29
2022-11-05T11:03:07.820Z,89.39
2022-11-05T11:04:07.811Z,89.59
2022-11-05T11:05:07.781Z,89.59
2022-11-05T11:06:07.768Z,89.59
2022-11-05T11:07:07.742Z,89.80
2022-11-05T11:08:07.731Z,90.11
2022-11-05T11:09:07.708Z,90.21
2022-11-05T11:10:07.798Z,90.21
2022-11-05T11:11:07.692Z,90.11
2022-11-05T11:12:07.660Z,89.90
2022-11-05T11:13:07.656Z,88.47
2022-11-05T11:14:07.658Z,88.37
2022-11-05T11:15:07.671Z,87.35
2022-11-05T11:16:07.621Z,86.18
2022-11-05T11:17:07.611Z,86.38
2022-11-05T11:18:07.608Z,86.49
2022-11-05T11:19:07.652Z,86.59
2022-11-05T11:20:07.587Z,87.06
2022-11-05T11:21:07.580Z,85.83
2022-11-05T11:22:07.572Z,86.04
2022-11-05T11:23:07.551Z,85.63
2022-11-05T11:24:07.517Z,83.89
2022-11-05T11:25:07.506Z,83.18
2022-11-05T11:26:07.502Z,83.79
2022-11-05T11:27:07.475Z,84.50
2022-11-05T11:28:07.471Z,84.09
2022-11-05T11:29:07.458Z,84.20
2022-11-05T11:30:07.463Z,84.20
2022-11-05T11:31:07.415Z,84.09
2022-11-05T11:32:07.440Z,84.36
2022-11-05T11:33:07.416Z,83.69
2022-11-05T11:34:07.389Z,83.07
2022-11-05T11:35:07.397Z,83.54
2022-11-05T11:36:07.351Z,82.93
2022-11-05T11:37:07.345Z,82.12
2022-11-05T11:38:07.333Z,82.83
2022-11-05T11:39:07.314Z,83.04
2022-11-05T11:40:10.103Z,82.93
2022-11-05T11:41:07.309Z,82.83
2022-11-05T11:42:08.248Z,82.32
2022-11-05T11:43:07.305Z,82.22
2022-11-05T11:44:07.251Z,82.32
2022-11-05T11:45:07.252Z,81.81
2022-11-05T11:46:12.528Z,81.51
2022-11-05T11:47:08.211Z,82.12
2022-11-05T11:48:07.224Z,82.22
2022-11-05T11:49:07.257Z,80.99
2022-11-05T11:50:07.236Z,81.81
2022-11-05T11:51:07.165Z,82.01
2022-11-05T11:52:07.221Z,81.30
2022-11-05T11:53:07.142Z,82.01
2022-11-05T11:54:07.134Z,82.32
2022-11-05T11:55:07.122Z,81.81
2022-11-05T11:56:07.135Z,82.22
2022-11-05T11:57:10.312Z,82.22
2022-11-05T11:58:08.080Z,82.12
2022-11-05T11:59:07.060Z,82.42
2022-11-05T12:00:09.192Z,82.01
2022-11-05T12:01:07.033Z,82.32
2022-11-05T12:02:07.198Z,81.30
2022-11-05T12:03:07.095Z,81.71
2022-11-05T12:04:07.002Z,82.59
2022-11-05T12:05:07.006Z,83.51
2022-11-05T12:06:06.968Z,82.39
2022-11-05T12:07:06.978Z,82.28
2022-11-05T12:08:06.942Z,82.89
2022-11-05T12:09:07.238Z,83.10
2022-11-05T12:10:06.949Z,83.00
2022-11-05T12:11:06.922Z,82.69
2022-11-05T12:12:06.932Z,82.69
2022-11-05T12:13:06.890Z,82.08
2022-11-05T12:14:06.857Z,82.35
2022-11-05T12:15:06.867Z,81.37
2022-11-05T12:16:06.844Z,81.16
2022-11-05T12:17:06.839Z,81.57
2022-11-05T12:18:07.557Z,82.28
2022-11-05T12:19:06.821Z,81.67
2022-11-05T12:20:06.865Z,80.65
2022-11-05T12:21:06.817Z,81.37
2022-11-05T12:22:06.759Z,81.46
2022-11-05T12:23:06.761Z,80.61
2022-11-05T12:24:06.751Z,81.43
2022-11-05T12:25:06.757Z,81.16
2022-11-05T12:26:06.736Z,81.26
2022-11-05T12:27:06.737Z,81.16
2022-11-05T12:28:06.701Z,80.44
2022-11-05T12:29:18.285Z,80.14
2022-11-05T12:31:17.165Z,79.63
2022-11-05T12:32:17.189Z,79.32
2022-11-05T12:33:17.527Z,80.14
2022-11-05T12:34:17.135Z,80.14
2022-11-05T12:35:17.129Z,79.83
2022-11-05T12:36:17.085Z,80.04
2022-11-05T12:37:17.085Z,80.55
2022-11-05T12:38:17.054Z,80.65
2022-11-05T12:39:17.075Z,80.34
2022-11-05T12:40:17.034Z,79.32
2022-11-05T12:41:17.024Z,80.04
2022-11-05T12:42:17.001Z,80.75
2022-11-05T12:43:17.523Z,80.24
2022-11-05T12:44:16.979Z,80.34
2022-11-05T12:45:17.045Z,80.55
2022-11-05T12:46:16.963Z,81.05
2022-11-05T12:47:16.968Z,80.55
2022-11-05T12:48:16.973Z,80.96
2022-11-05T12:49:16.949Z,81.20
2022-11-05T12:50:16.920Z,81.71
2022-11-05T12:51:16.942Z,81.71
2022-11-05T12:52:16.892Z,80.99
2022-11-05T12:53:16.881Z,81.20